LiveATC.Net - Listen to live air traffic control over the Internet!




ICAO: KMKL  IATA: MKL   Airport: Mc Kellar-Sipes Regional Airport
City: Jackson   State/Province: Tennessee
Country: United States   Continent: North America
KMKL METAR Weather: KMKL 081221Z AUTO 10005KT 5SM BR OVC004 12/12 A3018 RMK AO2 T01220117
KMKL ADS-B Flight Tracking  (ADSBExchange)
KMKL Flight Activity (FlightAware)
KMKL Airport Info   (iFlightPlanner)
KMKL VFR Sectional Chart   (iFlightPlanner) 
KMKL IFR Low Altitude Chart   (iFlightPlanner) 
KMKL IFR High Altitude Chart   (iFlightPlanner) 

KMKL Tower (Air Race Classic Start)
Feed Status: DOWN
Last heard on: 2019-06-20 14:39:02 (1328 days 22 hours 5 minutes ago)
Archive Access: KMKL Tower (Air Race Classic Start)
FacilityFrequency
Jackson Tower127.150

ICAO: KLGC  IATA: LGC   Airport: LaGrange-Callaway Airport
City: LaGrange   State/Province: Georgia
Country: United States   Continent: North America
KLGC METAR Weather: KLGC 081215Z AUTO 00000KT 10SM BKN028 OVC095 10/08 A3025 RMK AO2 T01020081
KLGC ADS-B Flight Tracking  (ADSBExchange)
KLGC Flight Activity (FlightAware)
KLGC Airport Info   (iFlightPlanner)
KLGC VFR Sectional Chart   (iFlightPlanner) 
KLGC IFR Low Altitude Chart   (iFlightPlanner) 
KLGC IFR High Altitude Chart   (iFlightPlanner) 

KLGC CTAF (Air Race Classic)
Feed Status: DOWN
Last heard on: 2020-04-29 17:54:05 (1014 days 18 hours 50 minutes ago)
Archive Access: KLGC CTAF (Air Race Classic)
FacilityFrequency
LaGrange CTAF122.975

ICAO: KHBG  IATA: HBG   Airport: Hattiesburg Bobby L Chain Municipal Airport
City: Hattiesburg   State/Province: Mississippi
Country: United States   Continent: North America
KHBG METAR Weather: KHBG 081153Z AUTO 00000KT 3SM BR BKN015 OVC021 18/18 A3014 RMK AO2 SLP205 70006 T01830183 10194 20172 55002
KHBG ADS-B Flight Tracking  (ADSBExchange)
KHBG Flight Activity (FlightAware)
KHBG Airport Info   (iFlightPlanner)
KHBG VFR Sectional Chart   (iFlightPlanner) 
KHBG IFR Low Altitude Chart   (iFlightPlanner) 
KHBG IFR High Altitude Chart   (iFlightPlanner) 

KHBG CTAF (Air Race Classic)
Feed Status: DOWN
Last heard on: 2019-07-19 17:38:22 (1299 days 19 hours 6 minutes ago)
Archive Access: KHBG CTAF (Air Race Classic)
FacilityFrequency
Hattiesburg CTAF122.800

ICAO: KSUZ  IATA: SUZ   Airport: Saline County Regional Airport
City: Benton   State/Province: Arkansas
Country: United States   Continent: North America
KSUZ METAR Weather: KSUZ 081215Z AUTO 04011G16KT 3SM BR OVC004 09/09 A3006 RMK A01
KSUZ ADS-B Flight Tracking  (ADSBExchange)
KSUZ Flight Activity (FlightAware)
KSUZ Airport Info   (iFlightPlanner)
KSUZ VFR Sectional Chart   (iFlightPlanner) 
KSUZ IFR Low Altitude Chart   (iFlightPlanner) 
KSUZ IFR High Altitude Chart   (iFlightPlanner) 

KSUZ CTAF (Air Race Classic)
Feed Status: DOWN
Last heard on: 2019-06-27 19:48:02 (1321 days 16 hours 56 minutes ago)
Archive Access: KSUZ CTAF (Air Race Classic)
FacilityFrequency
Saline County CTAF122.800

ICAO: KLXT  IATA: LXT   Airport: Lee's Summit Municipal Airport
City: Lee's Summit   State/Province: Missouri
Country: United States   Continent: North America
KLXT METAR Weather: KLXT 081153Z AUTO 05006KT 10SM CLR M01/M06 A3021 RMK AO2 SLP238 T10061056 10028 21017 58008 $
KLXT ADS-B Flight Tracking  (ADSBExchange)
KLXT Flight Activity (FlightAware)
KLXT Airport Info   (iFlightPlanner)
KLXT VFR Sectional Chart   (iFlightPlanner) 
KLXT IFR Low Altitude Chart   (iFlightPlanner) 
KLXT IFR High Altitude Chart   (iFlightPlanner) 

KLXT CTAF (Air Race Classic)
Feed Status: DOWN
Last heard on: 2019-06-27 20:24:02 (1321 days 16 hours 20 minutes ago)
Archive Access: KLXT CTAF (Air Race Classic)
FacilityFrequency
Lee's Summit CTAF122.800

ICAO: KFRM  IATA: FRM   Airport: Fairmont Municipal Airport
City: Fairmont   State/Province: Minnesota
Country: United States   Continent: North America
KFRM METAR Weather:
KFRM ADS-B Flight Tracking  (ADSBExchange)
KFRM Flight Activity (FlightAware)
KFRM Airport Info   (iFlightPlanner)
KFRM VFR Sectional Chart   (iFlightPlanner) 
KFRM IFR Low Altitude Chart   (iFlightPlanner) 
KFRM IFR High Altitude Chart   (iFlightPlanner) 

KFRM CTAF (Air Race Classic)
Feed Status: DOWN
Last heard on: 2019-06-25 18:58:03 (1323 days 17 hours 46 minutes ago)
Archive Access: KFRM CTAF (Air Race Classic)
FacilityFrequency
Fairmont CTAF122.800

ICAO: KAUW  IATA: AUW   Airport: Wausau Downtown Airport
City: Wausau   State/Province: Wisconsin
Country: United States   Continent: North America
KAUW METAR Weather: KAUW 081154Z AUTO 15005KT 10SM CLR M06/M08 A3013 RMK AO2 SLP224 T10561083 11022 21056 55000
KAUW ADS-B Flight Tracking  (ADSBExchange)
KAUW Flight Activity (FlightAware)
KAUW Airport Info   (iFlightPlanner)
KAUW VFR Sectional Chart   (iFlightPlanner) 
KAUW IFR Low Altitude Chart   (iFlightPlanner) 
KAUW IFR High Altitude Chart   (iFlightPlanner) 

KAUW CTAF (Air Race Classic)
Feed Status: DOWN
Last heard on: 2019-06-24 16:01:03 (1324 days 20 hours 43 minutes ago)
Archive Access: KAUW CTAF (Air Race Classic)
FacilityFrequency
Wausau CTAF122.700

ICAO: KCIU  IATA: CIU   Airport: Chippewa County International Airport
City: Sault Ste Marie   State/Province: Michigan
Country: United States   Continent: North America
KCIU METAR Weather: KCIU 081156Z AUTO 20005KT 10SM CLR M06/M07 A3011 RMK AO2 SLP206 70004 T10611067 11017 21061 55000 FZRANO
KCIU ADS-B Flight Tracking  (ADSBExchange)
KCIU Flight Activity (FlightAware)
KCIU Airport Info   (iFlightPlanner)
KCIU VFR Sectional Chart   (iFlightPlanner) 
KCIU IFR Low Altitude Chart   (iFlightPlanner) 
KCIU IFR High Altitude Chart   (iFlightPlanner) 

KCIU CTAF (Air Race Classic)
Feed Status: DOWN
Last heard on: 2019-06-24 17:12:02 (1324 days 19 hours 32 minutes ago)
Archive Access: KCIU CTAF (Air Race Classic)
FacilityFrequency
Chippewa CTAF123.000

ICAO: CYYB  IATA: YYB   Airport: North Bay Airport
City: North Bay   State/Province: Ontario
Country: Canada   Continent: North America
CYYB METAR Weather: CYYB 081211Z 00000KT 30SM FEW010 OVC024 M03/M04 A3003 RMK SC2SC6 SLP191
CYYB ADS-B Flight Tracking  (ADSBExchange)
CYYB Flight Activity (FlightAware)
CYYB Webcam:  (Airport Webcams) 

ICAO: CYFD  IATA: YFD   Airport: Brantford Airport
City: Brantford   State/Province: Ontario
Country: Canada   Continent: North America
CYFD METAR Weather: LWIS CYFD 301458Z AUTO 16014G19KT 14/M02 A3003 RMK SLP173 ADVISORY ONLY=
CYFD ADS-B Flight Tracking  (ADSBExchange)
CYFD Flight Activity (FlightAware)
CYFD Webcam:  (Airport Webcams) 

CYFD ATF (CTAF)
Feed Status: UP   Listeners: 0
Listen in your browser - HTML5 player (in browser, HTML5)
Click here to listen with your own player (launches your MP3 player)
Archive Access: CYFD ATF (CTAF)
FacilityFrequency
Brantford ATF (CTAF)122.825

ICAO: CNQ3  IATA: CNQ3   Airport: Welland Niagara Central Airport
City: Welland   State/Province: Ontario
Country: Canada   Continent: North America
CYSN METAR Weather: CYSN 081200Z 24008G15KT 15SM BKN045 02/M03 A3021 RMK SC7 SLP235
CNQ3 ADS-B Flight Tracking  (ADSBExchange)
CNQ3 Flight Activity (FlightAware)
CNQ3 Webcam:  

CNQ3 CTAF (Air Race End)
Feed Status: DOWN
Last heard on: 2019-06-28 16:08:02 (1320 days 20 hours 36 minutes ago)
Archive Access: CNQ3 CTAF (Air Race End)
FacilityFrequency
Welland CTAF123.500

NOTICE

Unauthorized use prohibited. See LiveATC.net Terms of Service


Airport/ARTCC Code
Frequency Search
(e.g., 124.400, 128.75)
Site-wide search
 


Browse Feeds
Top 50 Feeds
HF Oceanic Feeds
Coverage Map
Bad Weather Areas

LiveATC FAQ
Offer LiveATC feed
Contact LiveATC.net
Press Inquiries

LiveATC on iPhone
LiveATC on Android

LiveATC Mobile
(Mobile browser)

ATC Audio Archives
Interesting Recordings

LiveATC Forums


Home Page
About LiveATC.net


Terms of Use
Privacy Policy

AIRMETs/SIGMETs

FAA Airport Status
NAS Status
Arrival Demand


Server Software By:
Icecast.org
Liquidsoap